sensor_id;sensor_type;location;lat;lon;timestamp;temperature;humidity
16732;DHT22;8484;50.904;9.192;2023-05-28T00:01:59;12.40;99.90
16732;DHT22;8484;50.904;9.192;2023-05-28T00:04:26;12.40;99.90
16732;DHT22;8484;50.904;9.192;2023-05-28T00:06:54;12.50;99.90
16732;DHT22;8484;50.904;9.192;2023-05-28T00:09:21;12.50;99.90
16732;DHT22;8484;50.904;9.192;2023-05-28T00:11:48;12.50;99.90
16732;DHT22;8484;50.904;9.192;2023-05-28T00:14:15;12.40;99.90
16732;DHT22;8484;50.904;9.192;2023-05-28T00:16:42;12.40;99.90
16732;DHT22;8484;50.904;9.192;2023-05-28T00:19:10;12.40;99.90
16732;DHT22;8484;50.904;9.192;2023-05-28T00:21:38;12.30;99.90
16732;DHT22;8484;50.904;9.192;2023-05-28T00:24:07;12.20;99.90
16732;DHT22;8484;50.904;9.192;2023-05-28T00:26:34;12.20;99.90
16732;DHT22;8484;50.904;9.192;2023-05-28T00:29:02;12.10;99.90
16732;DHT22;8484;50.904;9.192;2023-05-28T00:31:29;12.10;99.90
16732;DHT22;8484;50.904;9.192;2023-05-28T00:33:56;12.10;99.90
16732;DHT22;8484;50.904;9.192;2023-05-28T00:36:23;12.00;99.90
16732;DHT22;8484;50.904;9.192;2023-05-28T00:38:50;11.90;99.90
16732;DHT22;8484;50.904;9.192;2023-05-28T00:41:20;12.00;99.90
16732;DHT22;8484;50.904;9.192;2023-05-28T00:43:48;12.00;99.90
16732;DHT22;8484;50.904;9.192;2023-05-28T00:46:17;12.10;99.90
16732;DHT22;8484;50.904;9.192;2023-05-28T00:48:45;12.00;99.90
16732;DHT22;8484;50.904;9.192;2023-05-28T00:51:13;11.60;99.90
16732;DHT22;8484;50.904;9.192;2023-05-28T00:53:40;11.60;99.90
16732;DHT22;8484;50.904;9.192;2023-05-28T00:56:09;11.60;99.90
16732;DHT22;8484;50.904;9.192;2023-05-28T00:58:38;11.60;99.90
16732;DHT22;8484;50.904;9.192;2023-05-28T01:01:06;11.50;99.90
16732;DHT22;8484;50.904;9.192;2023-05-28T01:03:36;11.50;99.90
16732;DHT22;8484;50.904;9.192;2023-05-28T01:06:05;11.60;99.90
16732;DHT22;8484;50.904;9.192;2023-05-28T01:08:35;11.40;99.90
16732;DHT22;8484;50.904;9.192;2023-05-28T01:11:02;11.30;99.90
16732;DHT22;8484;50.904;9.192;2023-05-28T01:13:30;11.30;99.90
16732;DHT22;8484;50.904;9.192;2023-05-28T01:15:58;11.30;99.90
16732;DHT22;8484;50.904;9.192;2023-05-28T01:18:26;11.40;99.90
16732;DHT22;8484;50.904;9.192;2023-05-28T01:20:53;11.40;99.90
16732;DHT22;8484;50.904;9.192;2023-05-28T01:23:21;11.50;99.90
16732;DHT22;8484;50.904;9.192;2023-05-28T01:25:52;11.30;99.90
16732;DHT22;8484;50.904;9.192;2023-05-28T01:28:21;11.20;99.90
16732;DHT22;8484;50.904;9.192;2023-05-28T01:30:48;10.90;99.90
16732;DHT22;8484;50.904;9.192;2023-05-28T01:33:15;10.90;99.90
16732;DHT22;8484;50.904;9.192;2023-05-28T01:35:42;10.90;99.90
16732;DHT22;8484;50.904;9.192;2023-05-28T01:38:10;10.80;99.90
16732;DHT22;8484;50.904;9.192;2023-05-28T01:40:41;10.80;99.90
16732;DHT22;8484;50.904;9.192;2023-05-28T01:43:09;10.80;99.90
16732;DHT22;8484;50.904;9.192;2023-05-28T01:45:37;10.60;99.90
16732;DHT22;8484;50.904;9.192;2023-05-28T01:48:05;10.60;99.90
16732;DHT22;8484;50.904;9.192;2023-05-28T01:50:32;10.50;99.90
16732;DHT22;8484;50.904;9.192;2023-05-28T01:52:59;10.60;99.90
16732;DHT22;8484;50.904;9.192;2023-05-28T01:55:26;10.70;99.90
16732;DHT22;8484;50.904;9.192;2023-05-28T01:57:53;10.60;99.90
16732;DHT22;8484;50.904;9.192;2023-05-28T02:00:22;10.60;99.90
16732;DHT22;8484;50.904;9.192;2023-05-28T02:02:49;10.60;99.90
16732;DHT22;8484;50.904;9.192;2023-05-28T02:05:17;10.50;99.90
16732;DHT22;8484;50.904;9.192;2023-05-28T02:07:44;10.40;99.90
16732;DHT22;8484;50.904;9.192;2023-05-28T02:10:11;10.30;99.90
16732;DHT22;8484;50.904;9.192;2023-05-28T02:12:38;10.30;99.90
16732;DHT22;8484;50.904;9.192;2023-05-28T02:15:06;10.10;99.90
16732;DHT22;8484;50.904;9.192;2023-05-28T02:17:34;10.40;99.90
16732;DHT22;8484;50.904;9.192;2023-05-28T02:20:03;10.20;99.90
16732;DHT22;8484;50.904;9.192;2023-05-28T02:22:30;10.10;99.90
16732;DHT22;8484;50.904;9.192;2023-05-28T02:24:57;10.10;99.90
16732;DHT22;8484;50.904;9.192;2023-05-28T02:27:23;10.10;99.90
16732;DHT22;8484;50.904;9.192;2023-05-28T02:29:50;10.10;99.90
16732;DHT22;8484;50.904;9.192;2023-05-28T02:32:19;10.20;99.90
16732;DHT22;8484;50.904;9.192;2023-05-28T02:34:48;10.20;99.90
16732;DHT22;8484;50.904;9.192;2023-05-28T02:37:16;10.20;99.90
16732;DHT22;8484;50.904;9.192;2023-05-28T02:39:43;10.10;99.90
16732;DHT22;8484;50.904;9.192;2023-05-28T02:42:10;10.10;99.90
16732;DHT22;8484;50.904;9.192;2023-05-28T02:44:36;10.00;99.90
16732;DHT22;8484;50.904;9.192;2023-05-28T02:47:03;10.00;99.90
16732;DHT22;8484;50.904;9.192;2023-05-28T02:49:30;10.00;99.90
16732;DHT22;8484;50.904;9.192;2023-05-28T02:51:58;10.00;99.90
16732;DHT22;8484;50.904;9.192;2023-05-28T02:54:25;10.00;99.90
16732;DHT22;8484;50.904;9.192;2023-05-28T02:56:52;10.00;99.90
16732;DHT22;8484;50.904;9.192;2023-05-28T02:59:19;10.00;99.90
16732;DHT22;8484;50.904;9.192;2023-05-28T03:01:46;10.00;99.90
16732;DHT22;8484;50.904;9.192;2023-05-28T03:04:12;9.70;99.90
16732;DHT22;8484;50.904;9.192;2023-05-28T03:06:39;9.50;99.90
16732;DHT22;8484;50.904;9.192;2023-05-28T03:09:08;9.50;99.90
16732;DHT22;8484;50.904;9.192;2023-05-28T03:11:34;9.50;99.90
16732;DHT22;8484;50.904;9.192;2023-05-28T03:14:01;9.60;99.90
16732;DHT22;8484;50.904;9.192;2023-05-28T03:16:28;9.30;99.90
16732;DHT22;8484;50.904;9.192;2023-05-28T03:18:58;9.40;99.90
16732;DHT22;8484;50.904;9.192;2023-05-28T03:21:24;9.40;99.90
16732;DHT22;8484;50.904;9.192;2023-05-28T03:23:51;9.50;99.90
16732;DHT22;8484;50.904;9.192;2023-05-28T03:26:19;9.40;99.90
16732;DHT22;8484;50.904;9.192;2023-05-28T03:28:46;9.50;99.90
16732;DHT22;8484;50.904;9.192;2023-05-28T03:31:14;9.50;99.90
16732;DHT22;8484;50.904;9.192;2023-05-28T03:33:41;9.50;99.90
16732;DHT22;8484;50.904;9.192;2023-05-28T03:36:08;9.40;99.90
16732;DHT22;8484;50.904;9.192;2023-05-28T03:38:36;9.30;99.90
16732;DHT22;8484;50.904;9.192;2023-05-28T03:41:03;9.00;99.90
16732;DHT22;8484;50.904;9.192;2023-05-28T03:43:34;9.00;99.90
16732;DHT22;8484;50.904;9.192;2023-05-28T03:46:00;9.20;99.90
16732;DHT22;8484;50.904;9.192;2023-05-28T03:48:27;9.40;99.90
16732;DHT22;8484;50.904;9.192;2023-05-28T03:50:54;9.60;99.90
16732;DHT22;8484;50.904;9.192;2023-05-28T03:53:21;9.60;99.90
16732;DHT22;8484;50.904;9.192;2023-05-28T03:55:48;9.50;99.90
16732;DHT22;8484;50.904;9.192;2023-05-28T03:58:16;9.40;99.90
16732;DHT22;8484;50.904;9.192;2023-05-28T04:00:45;9.60;99.90
16732;DHT22;8484;50.904;9.192;2023-05-28T04:03:12;9.40;99.90
16732;DHT22;8484;50.904;9.192;2023-05-28T04:05:38;9.60;99.90
16732;DHT22;8484;50.904;9.192;2023-05-28T04:08:05;9.70;99.90
16732;DHT22;8484;50.904;9.192;2023-05-28T04:10:32;9.80;99.90
16732;DHT22;8484;50.904;9.192;2023-05-28T04:12:59;9.90;99.90
16732;DHT22;8484;50.904;9.192;2023-05-28T04:15:26;9.80;99.90
16732;DHT22;8484;50.904;9.192;2023-05-28T04:17:54;10.00;99.90
16732;DHT22;8484;50.904;9.192;2023-05-28T04:20:21;9.90;99.90
16732;DHT22;8484;50.904;9.192;2023-05-28T04:22:48;9.60;99.90
16732;DHT22;8484;50.904;9.192;2023-05-28T04:25:15;9.60;99.90
16732;DHT22;8484;50.904;9.192;2023-05-28T04:27:44;9.70;99.90
16732;DHT22;8484;50.904;9.192;2023-05-28T04:30:11;9.70;99.90
16732;DHT22;8484;50.904;9.192;2023-05-28T04:32:41;9.30;99.90
16732;DHT22;8484;50.904;9.192;2023-05-28T04:35:09;9.30;99.90
16732;DHT22;8484;50.904;9.192;2023-05-28T04:37:36;9.50;99.90
16732;DHT22;8484;50.904;9.192;2023-05-28T04:40:06;9.40;99.90
16732;DHT22;8484;50.904;9.192;2023-05-28T04:42:34;9.40;99.90
16732;DHT22;8484;50.904;9.192;2023-05-28T04:45:01;9.50;99.90
16732;DHT22;8484;50.904;9.192;2023-05-28T04:47:29;9.60;99.90
16732;DHT22;8484;50.904;9.192;2023-05-28T04:49:55;9.60;99.90
16732;DHT22;8484;50.904;9.192;2023-05-28T04:52:24;9.80;99.90
16732;DHT22;8484;50.904;9.192;2023-05-28T04:54:51;10.10;99.90
16732;DHT22;8484;50.904;9.192;2023-05-28T04:57:17;10.20;99.90
16732;DHT22;8484;50.904;9.192;2023-05-28T04:59:45;10.30;99.90
16732;DHT22;8484;50.904;9.192;2023-05-28T05:02:12;10.40;99.90
16732;DHT22;8484;50.904;9.192;2023-05-28T05:04:42;10.60;99.90
16732;DHT22;8484;50.904;9.192;2023-05-28T05:07:09;10.60;99.90
16732;DHT22;8484;50.904;9.192;2023-05-28T05:09:37;10.80;99.90
16732;DHT22;8484;50.904;9.192;2023-05-28T05:12:05;10.90;99.90
16732;DHT22;8484;50.904;9.192;2023-05-28T05:14:32;11.10;99.90
16732;DHT22;8484;50.904;9.192;2023-05-28T05:16:59;11.20;99.90
16732;DHT22;8484;50.904;9.192;2023-05-28T05:19:26;11.30;99.90
16732;DHT22;8484;50.904;9.192;2023-05-28T05:21:53;11.40;99.90
16732;DHT22;8484;50.904;9.192;2023-05-28T05:24:20;11.30;99.90
16732;DHT22;8484;50.904;9.192;2023-05-28T05:26:48;11.60;99.90
16732;DHT22;8484;50.904;9.192;2023-05-28T05:29:15;11.70;99.90
16732;DHT22;8484;50.904;9.192;2023-05-28T05:31:42;11.80;99.90
16732;DHT22;8484;50.904;9.192;2023-05-28T05:34:09;12.10;99.90
16732;DHT22;8484;50.904;9.192;2023-05-28T05:36:36;12.10;99.90
16732;DHT22;8484;50.904;9.192;2023-05-28T05:39:02;12.30;99.90
16732;DHT22;8484;50.904;9.192;2023-05-28T05:41:29;12.50;99.90
16732;DHT22;8484;50.904;9.192;2023-05-28T05:43:58;12.60;99.90
16732;DHT22;8484;50.904;9.192;2023-05-28T05:46:24;12.70;99.90
16732;DHT22;8484;50.904;9.192;2023-05-28T05:48:51;12.90;99.90
16732;DHT22;8484;50.904;9.192;2023-05-28T05:51:18;13.00;99.90
16732;DHT22;8484;50.904;9.192;2023-05-28T05:53:45;13.20;99.90
16732;DHT22;8484;50.904;9.192;2023-05-28T05:56:12;13.30;99.90
16732;DHT22;8484;50.904;9.192;2023-05-28T05:58:39;13.50;99.90
16732;DHT22;8484;50.904;9.192;2023-05-28T06:01:08;13.40;99.90
16732;DHT22;8484;50.904;9.192;2023-05-28T06:03:35;13.70;99.90
16732;DHT22;8484;50.904;9.192;2023-05-28T06:06:03;13.80;99.90
16732;DHT22;8484;50.904;9.192;2023-05-28T06:08:30;13.90;99.90
16732;DHT22;8484;50.904;9.192;2023-05-28T06:10:57;13.90;99.90
16732;DHT22;8484;50.904;9.192;2023-05-28T06:13:24;14.30;99.90
16732;DHT22;8484;50.904;9.192;2023-05-28T06:15:51;14.50;99.90
16732;DHT22;8484;50.904;9.192;2023-05-28T06:18:19;14.30;99.90
16732;DHT22;8484;50.904;9.192;2023-05-28T06:20:47;13.90;99.90
16732;DHT22;8484;50.904;9.192;2023-05-28T06:23:15;13.90;99.90
16732;DHT22;8484;50.904;9.192;2023-05-28T06:25:41;14.20;99.90
16732;DHT22;8484;50.904;9.192;2023-05-28T06:28:09;14.10;99.90
16732;DHT22;8484;50.904;9.192;2023-05-28T06:30:36;14.60;99.90
16732;DHT22;8484;50.904;9.192;2023-05-28T06:33:03;15.00;99.90
16732;DHT22;8484;50.904;9.192;2023-05-28T06:35:31;15.10;99.90
16732;DHT22;8484;50.904;9.192;2023-05-28T06:37:58;15.30;99.90
16732;DHT22;8484;50.904;9.192;2023-05-28T06:40:25;15.20;99.90
16732;DHT22;8484;50.904;9.192;2023-05-28T06:42:51;15.50;99.90
16732;DHT22;8484;50.904;9.192;2023-05-28T06:45:18;15.80;99.90
16732;DHT22;8484;50.904;9.192;2023-05-28T06:47:46;15.80;99.90
16732;DHT22;8484;50.904;9.192;2023-05-28T06:50:12;16.00;99.90
16732;DHT22;8484;50.904;9.192;2023-05-28T06:52:41;15.90;99.90
16732;DHT22;8484;50.904;9.192;2023-05-28T06:55:08;16.10;99.90
16732;DHT22;8484;50.904;9.192;2023-05-28T06:57:35;16.10;99.90
16732;DHT22;8484;50.904;9.192;2023-05-28T07:00:02;16.60;99.90
16732;DHT22;8484;50.904;9.192;2023-05-28T07:02:34;16.60;99.90
16732;DHT22;8484;50.904;9.192;2023-05-28T07:05:01;16.50;99.90
16732;DHT22;8484;50.904;9.192;2023-05-28T07:07:30;16.50;99.90
16732;DHT22;8484;50.904;9.192;2023-05-28T07:09:58;17.00;99.90
16732;DHT22;8484;50.904;9.192;2023-05-28T07:12:24;17.00;99.90
16732;DHT22;8484;50.904;9.192;2023-05-28T07:14:51;17.50;99.90
16732;DHT22;8484;50.904;9.192;2023-05-28T07:17:19;17.20;99.90
16732;DHT22;8484;50.904;9.192;2023-05-28T07:19:47;17.30;99.90
16732;DHT22;8484;50.904;9.192;2023-05-28T07:22:14;17.50;99.90
16732;DHT22;8484;50.904;9.192;2023-05-28T07:24:41;17.70;99.90
16732;DHT22;8484;50.904;9.192;2023-05-28T07:27:10;17.90;99.90
16732;DHT22;8484;50.904;9.192;2023-05-28T07:29:36;18.20;99.90
16732;DHT22;8484;50.904;9.192;2023-05-28T07:32:04;17.90;99.90
16732;DHT22;8484;50.904;9.192;2023-05-28T07:34:31;18.00;99.90
16732;DHT22;8484;50.904;9.192;2023-05-28T07:36:58;18.50;99.90
16732;DHT22;8484;50.904;9.192;2023-05-28T07:39:25;18.40;99.90
16732;DHT22;8484;50.904;9.192;2023-05-28T07:41:52;18.10;99.90
16732;DHT22;8484;50.904;9.192;2023-05-28T07:44:20;18.60;99.90
16732;DHT22;8484;50.904;9.192;2023-05-28T07:46:47;19.00;99.90
16732;DHT22;8484;50.904;9.192;2023-05-28T07:49:14;19.20;99.90
16732;DHT22;8484;50.904;9.192;2023-05-28T07:51:42;19.30;99.90
16732;DHT22;8484;50.904;9.192;2023-05-28T07:54:09;19.70;99.90
16732;DHT22;8484;50.904;9.192;2023-05-28T07:56:36;19.80;99.90
16732;DHT22;8484;50.904;9.192;2023-05-28T07:59:04;19.70;99.90
16732;DHT22;8484;50.904;9.192;2023-05-28T08:01:32;19.60;99.90
16732;DHT22;8484;50.904;9.192;2023-05-28T08:04:05;19.70;99.90
16732;DHT22;8484;50.904;9.192;2023-05-28T08:06:32;20.10;99.90
16732;DHT22;8484;50.904;9.192;2023-05-28T08:08:59;20.60;99.90
16732;DHT22;8484;50.904;9.192;2023-05-28T08:11:26;20.10;99.90
16732;DHT22;8484;50.904;9.192;2023-05-28T08:13:54;20.40;99.90
16732;DHT22;8484;50.904;9.192;2023-05-28T08:16:21;20.40;99.90
16732;DHT22;8484;50.904;9.192;2023-05-28T08:18:49;20.70;99.80
16732;DHT22;8484;50.904;9.192;2023-05-28T08:21:16;20.80;99.90
16732;DHT22;8484;50.904;9.192;2023-05-28T08:23:42;20.90;99.90
16732;DHT22;8484;50.904;9.192;2023-05-28T08:26:09;20.70;99.90
16732;DHT22;8484;50.904;9.192;2023-05-28T08:28:36;20.90;99.90
16732;DHT22;8484;50.904;9.192;2023-05-28T08:31:03;21.70;99.70
16732;DHT22;8484;50.904;9.192;2023-05-28T08:33:30;22.20;99.20
16732;DHT22;8484;50.904;9.192;2023-05-28T08:36:00;22.40;95.70
16732;DHT22;8484;50.904;9.192;2023-05-28T08:38:28;22.00;97.90
16732;DHT22;8484;50.904;9.192;2023-05-28T08:40:55;22.40;98.50
16732;DHT22;8484;50.904;9.192;2023-05-28T08:43:23;22.60;97.90
16732;DHT22;8484;50.904;9.192;2023-05-28T08:45:51;22.70;98.70
16732;DHT22;8484;50.904;9.192;2023-05-28T08:48:18;23.10;96.70
16732;DHT22;8484;50.904;9.192;2023-05-28T08:50:48;22.70;96.60
16732;DHT22;8484;50.904;9.192;2023-05-28T08:53:22;22.20;97.30
16732;DHT22;8484;50.904;9.192;2023-05-28T08:55:50;22.60;96.50
16732;DHT22;8484;50.904;9.192;2023-05-28T08:58:17;23.00;94.90
16732;DHT22;8484;50.904;9.192;2023-05-28T09:00:44;22.80;96.40
16732;DHT22;8484;50.904;9.192;2023-05-28T09:03:11;22.40;95.30
16732;DHT22;8484;50.904;9.192;2023-05-28T09:05:38;22.80;96.70
16732;DHT22;8484;50.904;9.192;2023-05-28T09:08:07;23.30;94.20
16732;DHT22;8484;50.904;9.192;2023-05-28T09:10:36;22.10;96.10
16732;DHT22;8484;50.904;9.192;2023-05-28T09:13:03;23.40;95.80
16732;DHT22;8484;50.904;9.192;2023-05-28T09:15:30;24.20;95.30
16732;DHT22;8484;50.904;9.192;2023-05-28T09:17:59;24.10;94.90
16732;DHT22;8484;50.904;9.192;2023-05-28T09:20:26;23.60;93.70
16732;DHT22;8484;50.904;9.192;2023-05-28T09:22:58;23.50;96.30
16732;DHT22;8484;50.904;9.192;2023-05-28T09:25:26;23.40;95.30
16732;DHT22;8484;50.904;9.192;2023-05-28T09:27:56;23.80;94.30
16732;DHT22;8484;50.904;9.192;2023-05-28T09:30:25;23.30;97.00
16732;DHT22;8484;50.904;9.192;2023-05-28T09:33:01;24.00;95.30
16732;DHT22;8484;50.904;9.192;2023-05-28T09:35:29;24.10;94.30
16732;DHT22;8484;50.904;9.192;2023-05-28T09:38:00;25.00;94.80
16732;DHT22;8484;50.904;9.192;2023-05-28T09:40:27;26.00;92.10
16732;DHT22;8484;50.904;9.192;2023-05-28T09:42:55;26.20;91.60
16732;DHT22;8484;50.904;9.192;2023-05-28T09:45:33;25.90;91.80
16732;DHT22;8484;50.904;9.192;2023-05-28T09:48:00;25.90;91.00
16732;DHT22;8484;50.904;9.192;2023-05-28T09:50:28;25.90;89.50
16732;DHT22;8484;50.904;9.192;2023-05-28T09:52:56;25.50;90.70
16732;DHT22;8484;50.904;9.192;2023-05-28T09:55:24;25.40;91.10
16732;DHT22;8484;50.904;9.192;2023-05-28T09:58:00;26.00;92.10
16732;DHT22;8484;50.904;9.192;2023-05-28T10:00:31;26.20;89.90
16732;DHT22;8484;50.904;9.192;2023-05-28T10:03:12;26.40;90.70
16732;DHT22;8484;50.904;9.192;2023-05-28T10:05:43;25.80;90.80
16732;DHT22;8484;50.904;9.192;2023-05-28T10:08:13;26.10;91.30
16732;DHT22;8484;50.904;9.192;2023-05-28T10:10:44;25.50;91.80
16732;DHT22;8484;50.904;9.192;2023-05-28T10:13:13;25.70;92.00
16732;DHT22;8484;50.904;9.192;2023-05-28T10:15:41;26.80;89.90
16732;DHT22;8484;50.904;9.192;2023-05-28T10:18:08;26.50;88.00
16732;DHT22;8484;50.904;9.192;2023-05-28T10:20:36;27.40;89.40
16732;DHT22;8484;50.904;9.192;2023-05-28T10:23:03;27.70;85.20
16732;DHT22;8484;50.904;9.192;2023-05-28T10:25:30;27.50;85.50
16732;DHT22;8484;50.904;9.192;2023-05-28T10:27:59;26.70;90.20
16732;DHT22;8484;50.904;9.192;2023-05-28T10:30:33;27.20;88.30
16732;DHT22;8484;50.904;9.192;2023-05-28T10:33:03;27.30;89.20
16732;DHT22;8484;50.904;9.192;2023-05-28T10:35:32;27.30;88.10
16732;DHT22;8484;50.904;9.192;2023-05-28T10:38:06;27.80;86.70
16732;DHT22;8484;50.904;9.192;2023-05-28T10:40:34;28.10;83.90
16732;DHT22;8484;50.904;9.192;2023-05-28T10:43:39;27.50;84.30
16732;DHT22;8484;50.904;9.192;2023-05-28T10:46:10;27.30;85.30
16732;DHT22;8484;50.904;9.192;2023-05-28T10:48:38;27.10;88.70
16732;DHT22;8484;50.904;9.192;2023-05-28T10:51:05;27.60;86.30
16732;DHT22;8484;50.904;9.192;2023-05-28T10:53:32;27.90;81.10
16732;DHT22;8484;50.904;9.192;2023-05-28T10:56:01;28.40;84.60
16732;DHT22;8484;50.904;9.192;2023-05-28T10:58:33;29.20;79.90
16732;DHT22;8484;50.904;9.192;2023-05-28T11:01:01;29.50;78.50
16732;DHT22;8484;50.904;9.192;2023-05-28T11:03:41;29.40;75.70
16732;DHT22;8484;50.904;9.192;2023-05-28T11:06:09;29.00;78.30
16732;DHT22;8484;50.904;9.192;2023-05-28T11:08:42;29.50;79.20
16732;DHT22;8484;50.904;9.192;2023-05-28T11:11:10;28.80;82.30
16732;DHT22;8484;50.904;9.192;2023-05-28T11:13:38;29.00;78.00
16732;DHT22;8484;50.904;9.192;2023-05-28T11:16:09;29.50;78.20
16732;DHT22;8484;50.904;9.192;2023-05-28T11:18:36;29.70;79.50
16732;DHT22;8484;50.904;9.192;2023-05-28T11:21:06;28.30;79.30
16732;DHT22;8484;50.904;9.192;2023-05-28T11:23:34;27.90;81.80
16732;DHT22;8484;50.904;9.192;2023-05-28T11:26:03;27.70;74.80
16732;DHT22;8484;50.904;9.192;2023-05-28T11:28:30;27.90;80.40
16732;DHT22;8484;50.904;9.192;2023-05-28T11:30:58;28.80;76.00
16732;DHT22;8484;50.904;9.192;2023-05-28T11:33:28;29.40;76.40
16732;DHT22;8484;50.904;9.192;2023-05-28T11:35:57;29.20;77.30
16732;DHT22;8484;50.904;9.192;2023-05-28T11:38:25;29.10;76.50
16732;DHT22;8484;50.904;9.192;2023-05-28T11:40:58;29.60;74.00
16732;DHT22;8484;50.904;9.192;2023-05-28T11:43:25;30.40;74.80
16732;DHT22;8484;50.904;9.192;2023-05-28T11:45:56;29.80;75.30
16732;DHT22;8484;50.904;9.192;2023-05-28T11:48:23;28.50;78.20
16732;DHT22;8484;50.904;9.192;2023-05-28T11:50:57;28.50;73.60
16732;DHT22;8484;50.904;9.192;2023-05-28T11:53:37;28.90;75.90
16732;DHT22;8484;50.904;9.192;2023-05-28T11:56:05;29.20;75.60
16732;DHT22;8484;50.904;9.192;2023-05-28T11:58:32;30.00;72.90
16732;DHT22;8484;50.904;9.192;2023-05-28T12:01:00;29.90;74.70
16732;DHT22;8484;50.904;9.192;2023-05-28T12:03:27;28.50;78.40
16732;DHT22;8484;50.904;9.192;2023-05-28T12:05:54;28.90;72.20
16732;DHT22;8484;50.904;9.192;2023-05-28T12:08:21;29.20;71.40
16732;DHT22;8484;50.904;9.192;2023-05-28T12:10:49;28.90;72.00
16732;DHT22;8484;50.904;9.192;2023-05-28T12:13:16;28.00;78.10
16732;DHT22;8484;50.904;9.192;2023-05-28T12:15:42;28.60;73.20
16732;DHT22;8484;50.904;9.192;2023-05-28T12:18:10;29.70;73.50
16732;DHT22;8484;50.904;9.192;2023-05-28T12:20:40;29.70;73.40
16732;DHT22;8484;50.904;9.192;2023-05-28T12:23:08;29.40;75.30
16732;DHT22;8484;50.904;9.192;2023-05-28T12:25:45;28.30;77.10
16732;DHT22;8484;50.904;9.192;2023-05-28T12:28:15;28.20;78.30
16732;DHT22;8484;50.904;9.192;2023-05-28T12:30:43;29.50;73.30
16732;DHT22;8484;50.904;9.192;2023-05-28T12:33:11;29.50;73.50
16732;DHT22;8484;50.904;9.192;2023-05-28T12:35:38;29.70;70.60
16732;DHT22;8484;50.904;9.192;2023-05-28T12:38:06;29.90;73.90
16732;DHT22;8484;50.904;9.192;2023-05-28T12:40:33;29.00;75.70
16732;DHT22;8484;50.904;9.192;2023-05-28T12:42:59;28.00;75.80
16732;DHT22;8484;50.904;9.192;2023-05-28T12:45:28;27.80;76.60
16732;DHT22;8484;50.904;9.192;2023-05-28T12:47:55;27.70;77.80
16732;DHT22;8484;50.904;9.192;2023-05-28T12:50:22;28.00;76.00
16732;DHT22;8484;50.904;9.192;2023-05-28T12:52:49;29.20;70.30
16732;DHT22;8484;50.904;9.192;2023-05-28T12:55:16;29.80;71.40
16732;DHT22;8484;50.904;9.192;2023-05-28T12:57:42;28.80;72.40
16732;DHT22;8484;50.904;9.192;2023-05-28T13:00:10;29.00;68.30
16732;DHT22;8484;50.904;9.192;2023-05-28T13:02:39;27.40;74.60
16732;DHT22;8484;50.904;9.192;2023-05-28T13:05:07;27.70;75.90
16732;DHT22;8484;50.904;9.192;2023-05-28T13:07:34;27.10;73.00
16732;DHT22;8484;50.904;9.192;2023-05-28T13:10:01;27.60;75.90
16732;DHT22;8484;50.904;9.192;2023-05-28T13:12:30;28.30;70.60
16732;DHT22;8484;50.904;9.192;2023-05-28T13:14:58;28.70;69.70
16732;DHT22;8484;50.904;9.192;2023-05-28T13:17:26;28.00;70.00
16732;DHT22;8484;50.904;9.192;2023-05-28T13:19:55;28.20;73.50
16732;DHT22;8484;50.904;9.192;2023-05-28T13:22:22;28.60;69.20
16732;DHT22;8484;50.904;9.192;2023-05-28T13:24:49;28.10;72.00
16732;DHT22;8484;50.904;9.192;2023-05-28T13:27:15;28.40;71.10
16732;DHT22;8484;50.904;9.192;2023-05-28T13:29:42;29.00;69.30
16732;DHT22;8484;50.904;9.192;2023-05-28T13:32:09;28.60;65.80
16732;DHT22;8484;50.904;9.192;2023-05-28T13:34:38;28.70;68.50
16732;DHT22;8484;50.904;9.192;2023-05-28T13:37:06;29.00;67.00
16732;DHT22;8484;50.904;9.192;2023-05-28T13:39:33;28.70;68.50
16732;DHT22;8484;50.904;9.192;2023-05-28T13:42:00;27.70;72.80
16732;DHT22;8484;50.904;9.192;2023-05-28T13:44:30;27.50;70.60
16732;DHT22;8484;50.904;9.192;2023-05-28T13:46:56;27.80;70.10
16732;DHT22;8484;50.904;9.192;2023-05-28T13:49:23;27.30;69.30
16732;DHT22;8484;50.904;9.192;2023-05-28T13:51:50;27.60;68.70
16732;DHT22;8484;50.904;9.192;2023-05-28T13:54:19;27.90;71.10
16732;DHT22;8484;50.904;9.192;2023-05-28T13:56:45;28.10;68.00
16732;DHT22;8484;50.904;9.192;2023-05-28T13:59:12;27.80;69.90
16732;DHT22;8484;50.904;9.192;2023-05-28T14:01:39;27.10;73.30
16732;DHT22;8484;50.904;9.192;2023-05-28T14:04:06;26.90;71.70
16732;DHT22;8484;50.904;9.192;2023-05-28T14:06:33;27.00;68.40
16732;DHT22;8484;50.904;9.192;2023-05-28T14:09:00;26.50;71.60
16732;DHT22;8484;50.904;9.192;2023-05-28T14:11:29;26.10;72.80
16732;DHT22;8484;50.904;9.192;2023-05-28T14:13:55;26.00;73.10
16732;DHT22;8484;50.904;9.192;2023-05-28T14:16:22;25.90;74.60
16732;DHT22;8484;50.904;9.192;2023-05-28T14:18:49;26.40;71.10
16732;DHT22;8484;50.904;9.192;2023-05-28T14:21:16;26.60;71.90
16732;DHT22;8484;50.904;9.192;2023-05-28T14:23:43;26.40;74.40
16732;DHT22;8484;50.904;9.192;2023-05-28T14:26:11;25.90;75.00
16732;DHT22;8484;50.904;9.192;2023-05-28T14:28:39;26.10;74.90
16732;DHT22;8484;50.904;9.192;2023-05-28T14:31:07;26.30;70.50
16732;DHT22;8484;50.904;9.192;2023-05-28T14:33:34;26.00;76.60
16732;DHT22;8484;50.904;9.192;2023-05-28T14:36:01;26.70;73.40
16732;DHT22;8484;50.904;9.192;2023-05-28T14:38:28;26.80;70.50
16732;DHT22;8484;50.904;9.192;2023-05-28T14:40:55;27.00;73.70
16732;DHT22;8484;50.904;9.192;2023-05-28T14:43:22;26.90;75.00
16732;DHT22;8484;50.904;9.192;2023-05-28T14:45:50;28.00;70.70
16732;DHT22;8484;50.904;9.192;2023-05-28T14:48:17;28.00;70.50
16732;DHT22;8484;50.904;9.192;2023-05-28T14:50:44;28.10;71.30
16732;DHT22;8484;50.904;9.192;2023-05-28T14:53:11;27.80;72.50
16732;DHT22;8484;50.904;9.192;2023-05-28T14:55:38;27.50;72.20
16732;DHT22;8484;50.904;9.192;2023-05-28T14:58:05;27.30;71.60
16732;DHT22;8484;50.904;9.192;2023-05-28T15:00:32;26.80;75.10
16732;DHT22;8484;50.904;9.192;2023-05-28T15:03:00;27.60;73.80
16732;DHT22;8484;50.904;9.192;2023-05-28T15:05:27;27.80;74.00
16732;DHT22;8484;50.904;9.192;2023-05-28T15:07:54;27.60;72.10
16732;DHT22;8484;50.904;9.192;2023-05-28T15:10:21;27.40;76.10
16732;DHT22;8484;50.904;9.192;2023-05-28T15:12:48;27.90;72.10
16732;DHT22;8484;50.904;9.192;2023-05-28T15:15:15;26.30;79.60
16732;DHT22;8484;50.904;9.192;2023-05-28T15:17:42;26.20;79.90
16732;DHT22;8484;50.904;9.192;2023-05-28T15:20:11;26.50;77.00
16732;DHT22;8484;50.904;9.192;2023-05-28T15:22:38;26.60;78.40
16732;DHT22;8484;50.904;9.192;2023-05-28T15:25:05;26.40;79.00
16732;DHT22;8484;50.904;9.192;2023-05-28T15:27:32;26.10;77.50
16732;DHT22;8484;50.904;9.192;2023-05-28T15:29:59;26.80;75.30
16732;DHT22;8484;50.904;9.192;2023-05-28T15:32:27;26.50;75.30
16732;DHT22;8484;50.904;9.192;2023-05-28T15:34:55;26.10;76.00
16732;DHT22;8484;50.904;9.192;2023-05-28T15:37:23;26.80;77.00
16732;DHT22;8484;50.904;9.192;2023-05-28T15:39:50;26.10;76.90
16732;DHT22;8484;50.904;9.192;2023-05-28T15:42:18;25.90;77.00
16732;DHT22;8484;50.904;9.192;2023-05-28T15:44:45;26.10;77.50
16732;DHT22;8484;50.904;9.192;2023-05-28T15:47:13;26.50;74.20
16732;DHT22;8484;50.904;9.192;2023-05-28T15:49:40;26.70;75.90
16732;DHT22;8484;50.904;9.192;2023-05-28T15:52:06;26.80;75.20